sensor_id;sensor_type;location;lat;lon;timestamp;temperature;humidity
24470;DHT22;12635;50.852;5.676;2023-02-28T00:01:47;-1.50;99.90
24470;DHT22;12635;50.852;5.676;2023-02-28T00:04:13;-1.60;99.90
24470;DHT22;12635;50.852;5.676;2023-02-28T00:06:42;-1.60;99.90
24470;DHT22;12635;50.852;5.676;2023-02-28T00:09:08;-1.60;99.90
24470;DHT22;12635;50.852;5.676;2023-02-28T00:11:35;-1.50;99.90
24470;DHT22;12635;50.852;5.676;2023-02-28T00:14:03;-1.40;99.90
24470;DHT22;12635;50.852;5.676;2023-02-28T00:16:30;-1.30;99.90
24470;DHT22;12635;50.852;5.676;2023-02-28T00:18:57;-1.20;99.90
24470;DHT22;12635;50.852;5.676;2023-02-28T00:21:23;-1.30;99.90
24470;DHT22;12635;50.852;5.676;2023-02-28T00:23:52;-1.40;99.90
24470;DHT22;12635;50.852;5.676;2023-02-28T00:26:18;-1.70;99.90
24470;DHT22;12635;50.852;5.676;2023-02-28T00:28:45;-1.90;99.90
24470;DHT22;12635;50.852;5.676;2023-02-28T00:31:13;-2.10;99.90
24470;DHT22;12635;50.852;5.676;2023-02-28T00:33:40;-2.10;99.90
24470;DHT22;12635;50.852;5.676;2023-02-28T00:36:11;-2.10;99.90
24470;DHT22;12635;50.852;5.676;2023-02-28T00:38:39;-2.30;99.90
24470;DHT22;12635;50.852;5.676;2023-02-28T00:41:07;-2.20;99.90
24470;DHT22;12635;50.852;5.676;2023-02-28T00:43:35;-2.20;99.90
24470;DHT22;12635;50.852;5.676;2023-02-28T00:46:03;-2.30;99.90
24470;DHT22;12635;50.852;5.676;2023-02-28T00:48:30;-2.10;99.90
24470;DHT22;12635;50.852;5.676;2023-02-28T00:50:57;-2.20;99.90
24470;DHT22;12635;50.852;5.676;2023-02-28T00:53:23;-2.30;99.90
24470;DHT22;12635;50.852;5.676;2023-02-28T00:55:50;-2.20;99.90
24470;DHT22;12635;50.852;5.676;2023-02-28T00:58:19;-2.20;99.90
24470;DHT22;12635;50.852;5.676;2023-02-28T01:00:46;-2.40;99.90
24470;DHT22;12635;50.852;5.676;2023-02-28T01:03:14;-2.50;99.90
24470;DHT22;12635;50.852;5.676;2023-02-28T01:05:41;-2.30;99.90
24470;DHT22;12635;50.852;5.676;2023-02-28T01:08:08;-2.40;99.90
24470;DHT22;12635;50.852;5.676;2023-02-28T01:10:35;-2.30;99.90
24470;DHT22;12635;50.852;5.676;2023-02-28T01:13:02;-2.10;99.90
24470;DHT22;12635;50.852;5.676;2023-02-28T01:15:30;-2.10;99.90
24470;DHT22;12635;50.852;5.676;2023-02-28T01:17:58;-2.10;99.90
24470;DHT22;12635;50.852;5.676;2023-02-28T01:20:25;-1.90;99.90
24470;DHT22;12635;50.852;5.676;2023-02-28T01:22:52;-2.00;99.90
24470;DHT22;12635;50.852;5.676;2023-02-28T01:25:18;-1.90;99.90
24470;DHT22;12635;50.852;5.676;2023-02-28T01:27:45;-2.00;99.90
24470;DHT22;12635;50.852;5.676;2023-02-28T01:30:12;-1.90;99.90
24470;DHT22;12635;50.852;5.676;2023-02-28T01:32:41;-2.00;99.90
24470;DHT22;12635;50.852;5.676;2023-02-28T01:35:08;-2.20;99.90
24470;DHT22;12635;50.852;5.676;2023-02-28T01:37:35;-2.10;99.90
24470;DHT22;12635;50.852;5.676;2023-02-28T01:40:02;-2.10;99.90
24470;DHT22;12635;50.852;5.676;2023-02-28T01:42:29;-2.20;99.90
24470;DHT22;12635;50.852;5.676;2023-02-28T01:45:04;-2.50;99.90
24470;DHT22;12635;50.852;5.676;2023-02-28T01:47:34;-2.60;99.90
24470;DHT22;12635;50.852;5.676;2023-02-28T01:50:04;-2.70;99.90
24470;DHT22;12635;50.852;5.676;2023-02-28T01:52:32;-2.60;99.90
24470;DHT22;12635;50.852;5.676;2023-02-28T01:54:59;-2.30;99.90
24470;DHT22;12635;50.852;5.676;2023-02-28T01:57:28;-2.30;99.90
24470;DHT22;12635;50.852;5.676;2023-02-28T01:59:57;-2.20;99.90
24470;DHT22;12635;50.852;5.676;2023-02-28T02:02:25;-2.20;99.90
24470;DHT22;12635;50.852;5.676;2023-02-28T02:04:54;-2.30;99.90
24470;DHT22;12635;50.852;5.676;2023-02-28T02:07:23;-2.40;99.90
24470;DHT22;12635;50.852;5.676;2023-02-28T02:09:50;-2.40;99.90
24470;DHT22;12635;50.852;5.676;2023-02-28T02:12:20;-2.50;99.90
24470;DHT22;12635;50.852;5.676;2023-02-28T02:14:54;-2.60;99.90
24470;DHT22;12635;50.852;5.676;2023-02-28T02:17:26;-2.50;99.90
24470;DHT22;12635;50.852;5.676;2023-02-28T02:22:52;-2.20;99.90
24470;DHT22;12635;50.852;5.676;2023-02-28T02:25:26;-2.20;99.90
24470;DHT22;12635;50.852;5.676;2023-02-28T02:27:58;-2.30;99.90
24470;DHT22;12635;50.852;5.676;2023-02-28T02:30:46;-2.50;99.90
24470;DHT22;12635;50.852;5.676;2023-02-28T02:33:23;-2.50;99.90
24470;DHT22;12635;50.852;5.676;2023-02-28T02:35:53;-2.40;99.90
24470;DHT22;12635;50.852;5.676;2023-02-28T02:38:24;-2.40;99.90
24470;DHT22;12635;50.852;5.676;2023-02-28T02:40:56;-2.40;99.90
24470;DHT22;12635;50.852;5.676;2023-02-28T02:43:25;-2.50;99.90
24470;DHT22;12635;50.852;5.676;2023-02-28T02:45:53;-2.60;99.90
24470;DHT22;12635;50.852;5.676;2023-02-28T02:48:24;-2.50;99.90
24470;DHT22;12635;50.852;5.676;2023-02-28T02:50:54;-2.40;99.90
24470;DHT22;12635;50.852;5.676;2023-02-28T02:53:22;-2.40;99.90
24470;DHT22;12635;50.852;5.676;2023-02-28T02:55:51;-2.40;99.90
24470;DHT22;12635;50.852;5.676;2023-02-28T02:58:20;-2.30;99.90
24470;DHT22;12635;50.852;5.676;2023-02-28T03:00:49;-2.30;99.90
24470;DHT22;12635;50.852;5.676;2023-02-28T03:03:18;-2.30;99.90
24470;DHT22;12635;50.852;5.676;2023-02-28T03:05:56;-2.30;99.90
24470;DHT22;12635;50.852;5.676;2023-02-28T03:08:23;-2.40;99.90
24470;DHT22;12635;50.852;5.676;2023-02-28T03:10:50;-2.40;99.90
24470;DHT22;12635;50.852;5.676;2023-02-28T03:13:30;-2.60;99.90
24470;DHT22;12635;50.852;5.676;2023-02-28T03:16:04;-2.70;99.90
24470;DHT22;12635;50.852;5.676;2023-02-28T03:18:36;-3.00;99.90
24470;DHT22;12635;50.852;5.676;2023-02-28T03:21:09;-3.20;99.90
24470;DHT22;12635;50.852;5.676;2023-02-28T03:23:42;-3.20;99.90
24470;DHT22;12635;50.852;5.676;2023-02-28T03:26:12;-2.90;99.90
24470;DHT22;12635;50.852;5.676;2023-02-28T03:28:41;-2.80;99.90
24470;DHT22;12635;50.852;5.676;2023-02-28T03:31:13;-2.70;99.90
24470;DHT22;12635;50.852;5.676;2023-02-28T03:33:42;-2.40;99.90
24470;DHT22;12635;50.852;5.676;2023-02-28T03:36:13;-2.20;99.90
24470;DHT22;12635;50.852;5.676;2023-02-28T03:38:42;-2.10;99.90
24470;DHT22;12635;50.852;5.676;2023-02-28T03:41:12;-2.10;99.90
24470;DHT22;12635;50.852;5.676;2023-02-28T03:43:41;-1.90;99.90
24470;DHT22;12635;50.852;5.676;2023-02-28T03:46:10;-1.90;99.90
24470;DHT22;12635;50.852;5.676;2023-02-28T03:48:40;-1.90;99.90
24470;DHT22;12635;50.852;5.676;2023-02-28T03:51:07;-2.10;99.90
24470;DHT22;12635;50.852;5.676;2023-02-28T03:53:37;-2.00;99.90
24470;DHT22;12635;50.852;5.676;2023-02-28T03:56:06;-1.90;99.90
24470;DHT22;12635;50.852;5.676;2023-02-28T03:58:36;-1.90;99.90
24470;DHT22;12635;50.852;5.676;2023-02-28T04:01:05;-1.70;99.90
24470;DHT22;12635;50.852;5.676;2023-02-28T04:03:34;-1.60;99.90
24470;DHT22;12635;50.852;5.676;2023-02-28T04:06:01;-1.60;99.90
24470;DHT22;12635;50.852;5.676;2023-02-28T04:08:28;-1.70;99.90
24470;DHT22;12635;50.852;5.676;2023-02-28T04:10:58;-1.80;99.90
24470;DHT22;12635;50.852;5.676;2023-02-28T04:13:27;-1.80;99.90
24470;DHT22;12635;50.852;5.676;2023-02-28T04:15:54;-1.90;99.90
24470;DHT22;12635;50.852;5.676;2023-02-28T04:18:20;-2.00;99.90
24470;DHT22;12635;50.852;5.676;2023-02-28T04:20:47;-2.00;99.90
24470;DHT22;12635;50.852;5.676;2023-02-28T04:23:14;-1.90;99.90
24470;DHT22;12635;50.852;5.676;2023-02-28T04:25:41;-1.90;99.90
24470;DHT22;12635;50.852;5.676;2023-02-28T04:28:10;-1.80;99.90
24470;DHT22;12635;50.852;5.676;2023-02-28T04:30:37;-1.80;99.90
24470;DHT22;12635;50.852;5.676;2023-02-28T04:33:04;-1.80;99.90
24470;DHT22;12635;50.852;5.676;2023-02-28T04:35:30;-1.80;99.90
24470;DHT22;12635;50.852;5.676;2023-02-28T04:37:57;-1.70;99.90
24470;DHT22;12635;50.852;5.676;2023-02-28T04:40:24;-1.70;99.90
24470;DHT22;12635;50.852;5.676;2023-02-28T04:42:51;-1.90;99.90
24470;DHT22;12635;50.852;5.676;2023-02-28T04:45:19;-1.90;99.90
24470;DHT22;12635;50.852;5.676;2023-02-28T04:47:46;-2.00;99.90
24470;DHT22;12635;50.852;5.676;2023-02-28T04:50:13;-2.10;99.90
24470;DHT22;12635;50.852;5.676;2023-02-28T04:52:40;-2.10;99.90
24470;DHT22;12635;50.852;5.676;2023-02-28T04:55:07;-2.10;99.90
24470;DHT22;12635;50.852;5.676;2023-02-28T04:57:34;-2.10;99.90
24470;DHT22;12635;50.852;5.676;2023-02-28T05:00:01;-2.10;99.90
24470;DHT22;12635;50.852;5.676;2023-02-28T05:02:31;-2.20;99.90
24470;DHT22;12635;50.852;5.676;2023-02-28T05:05:00;-2.40;99.90
24470;DHT22;12635;50.852;5.676;2023-02-28T05:07:27;-2.70;99.90
24470;DHT22;12635;50.852;5.676;2023-02-28T05:09:54;-2.70;99.90
24470;DHT22;12635;50.852;5.676;2023-02-28T05:12:21;-2.60;99.90
24470;DHT22;12635;50.852;5.676;2023-02-28T05:14:48;-2.70;99.90
24470;DHT22;12635;50.852;5.676;2023-02-28T05:17:15;-3.00;99.90
24470;DHT22;12635;50.852;5.676;2023-02-28T05:19:43;-3.20;99.90
24470;DHT22;12635;50.852;5.676;2023-02-28T05:22:12;-3.20;99.90
24470;DHT22;12635;50.852;5.676;2023-02-28T05:24:39;-3.20;99.90
24470;DHT22;12635;50.852;5.676;2023-02-28T05:27:07;-3.20;99.90
24470;DHT22;12635;50.852;5.676;2023-02-28T05:29:34;-3.40;99.90
24470;DHT22;12635;50.852;5.676;2023-02-28T05:32:09;-3.30;99.90
24470;DHT22;12635;50.852;5.676;2023-02-28T05:34:36;-3.30;99.90
24470;DHT22;12635;50.852;5.676;2023-02-28T05:37:05;-3.20;99.90
24470;DHT22;12635;50.852;5.676;2023-02-28T05:39:32;-3.10;99.90
24470;DHT22;12635;50.852;5.676;2023-02-28T05:41:59;-2.70;99.90
24470;DHT22;12635;50.852;5.676;2023-02-28T05:44:26;-2.80;99.90
24470;DHT22;12635;50.852;5.676;2023-02-28T05:46:53;-2.90;99.90
24470;DHT22;12635;50.852;5.676;2023-02-28T05:49:20;-2.90;99.90
24470;DHT22;12635;50.852;5.676;2023-02-28T05:51:47;-3.00;99.90
24470;DHT22;12635;50.852;5.676;2023-02-28T05:54:15;-2.90;99.90
24470;DHT22;12635;50.852;5.676;2023-02-28T05:56:42;-3.00;99.90
24470;DHT22;12635;50.852;5.676;2023-02-28T05:59:11;-3.10;99.90
24470;DHT22;12635;50.852;5.676;2023-02-28T06:01:38;-3.00;99.90
24470;DHT22;12635;50.852;5.676;2023-02-28T06:04:06;-3.00;99.90
24470;DHT22;12635;50.852;5.676;2023-02-28T06:06:34;-3.10;99.90
24470;DHT22;12635;50.852;5.676;2023-02-28T06:09:01;-3.20;99.90
24470;DHT22;12635;50.852;5.676;2023-02-28T06:11:29;-3.50;99.90
24470;DHT22;12635;50.852;5.676;2023-02-28T06:13:57;-3.60;99.90
24470;DHT22;12635;50.852;5.676;2023-02-28T06:16:25;-3.70;99.90
24470;DHT22;12635;50.852;5.676;2023-02-28T06:18:52;-3.70;99.90
24470;DHT22;12635;50.852;5.676;2023-02-28T06:21:21;-3.60;99.90
24470;DHT22;12635;50.852;5.676;2023-02-28T06:23:47;-3.50;99.90
24470;DHT22;12635;50.852;5.676;2023-02-28T06:26:14;-3.50;99.90
24470;DHT22;12635;50.852;5.676;2023-02-28T06:28:43;-3.50;99.90
24470;DHT22;12635;50.852;5.676;2023-02-28T06:31:10;-3.40;99.90
24470;DHT22;12635;50.852;5.676;2023-02-28T06:33:38;-3.40;99.90
24470;DHT22;12635;50.852;5.676;2023-02-28T06:36:05;-3.40;99.90
24470;DHT22;12635;50.852;5.676;2023-02-28T06:38:32;-3.30;99.90
24470;DHT22;12635;50.852;5.676;2023-02-28T06:41:00;-3.40;99.90
24470;DHT22;12635;50.852;5.676;2023-02-28T06:43:27;-3.30;99.90
24470;DHT22;12635;50.852;5.676;2023-02-28T06:45:57;-3.20;99.90
24470;DHT22;12635;50.852;5.676;2023-02-28T06:48:25;-2.90;99.90
24470;DHT22;12635;50.852;5.676;2023-02-28T06:50:52;-2.60;99.90
24470;DHT22;12635;50.852;5.676;2023-02-28T06:53:27;-2.50;99.90
24470;DHT22;12635;50.852;5.676;2023-02-28T06:55:54;-2.40;99.90
24470;DHT22;12635;50.852;5.676;2023-02-28T06:58:20;-2.20;99.90
24470;DHT22;12635;50.852;5.676;2023-02-28T07:00:50;-1.90;99.90
24470;DHT22;12635;50.852;5.676;2023-02-28T07:03:18;-1.70;99.90
24470;DHT22;12635;50.852;5.676;2023-02-28T07:05:45;-1.20;99.90
24470;DHT22;12635;50.852;5.676;2023-02-28T07:08:12;-0.70;99.90
24470;DHT22;12635;50.852;5.676;2023-02-28T07:10:39;-0.10;99.90
24470;DHT22;12635;50.852;5.676;2023-02-28T07:13:06;0.60;99.90
24470;DHT22;12635;50.852;5.676;2023-02-28T07:15:33;1.00;99.90
24470;DHT22;12635;50.852;5.676;2023-02-28T07:18:00;1.40;99.90
24470;DHT22;12635;50.852;5.676;2023-02-28T07:20:29;1.80;99.90
24470;DHT22;12635;50.852;5.676;2023-02-28T07:22:56;2.00;99.90
24470;DHT22;12635;50.852;5.676;2023-02-28T07:25:23;2.70;99.90
24470;DHT22;12635;50.852;5.676;2023-02-28T07:27:50;2.80;99.90
24470;DHT22;12635;50.852;5.676;2023-02-28T07:30:17;3.00;99.90
24470;DHT22;12635;50.852;5.676;2023-02-28T07:32:44;3.50;99.90
24470;DHT22;12635;50.852;5.676;2023-02-28T07:35:11;3.10;99.90
24470;DHT22;12635;50.852;5.676;2023-02-28T07:37:39;3.50;99.90
24470;DHT22;12635;50.852;5.676;2023-02-28T07:40:07;3.60;99.90
24470;DHT22;12635;50.852;5.676;2023-02-28T07:42:36;3.20;99.90
24470;DHT22;12635;50.852;5.676;2023-02-28T07:45:05;3.20;99.90
24470;DHT22;12635;50.852;5.676;2023-02-28T07:47:32;4.10;99.90
24470;DHT22;12635;50.852;5.676;2023-02-28T07:49:59;3.90;99.90
24470;DHT22;12635;50.852;5.676;2023-02-28T07:52:26;4.00;99.90
24470;DHT22;12635;50.852;5.676;2023-02-28T07:54:54;4.20;99.90
24470;DHT22;12635;50.852;5.676;2023-02-28T07:57:22;4.50;99.90
24470;DHT22;12635;50.852;5.676;2023-02-28T07:59:49;4.30;99.90
24470;DHT22;12635;50.852;5.676;2023-02-28T08:02:16;4.80;99.90
24470;DHT22;12635;50.852;5.676;2023-02-28T08:04:43;4.30;99.90
24470;DHT22;12635;50.852;5.676;2023-02-28T08:07:12;4.70;99.90
24470;DHT22;12635;50.852;5.676;2023-02-28T08:09:39;4.70;99.90
24470;DHT22;12635;50.852;5.676;2023-02-28T08:12:08;5.00;99.90
24470;DHT22;12635;50.852;5.676;2023-02-28T08:14:35;5.10;99.90
24470;DHT22;12635;50.852;5.676;2023-02-28T08:17:03;6.30;99.90
24470;DHT22;12635;50.852;5.676;2023-02-28T08:19:30;5.70;99.90
24470;DHT22;12635;50.852;5.676;2023-02-28T08:21:57;5.40;99.90
24470;DHT22;12635;50.852;5.676;2023-02-28T08:24:23;5.50;99.90
24470;DHT22;12635;50.852;5.676;2023-02-28T08:26:50;5.60;99.90
24470;DHT22;12635;50.852;5.676;2023-02-28T08:29:19;5.30;99.90
24470;DHT22;12635;50.852;5.676;2023-02-28T08:31:45;5.30;99.90
24470;DHT22;12635;50.852;5.676;2023-02-28T08:34:13;6.20;99.90
24470;DHT22;12635;50.852;5.676;2023-02-28T08:36:40;5.80;99.90
24470;DHT22;12635;50.852;5.676;2023-02-28T08:39:08;5.70;99.90
24470;DHT22;12635;50.852;5.676;2023-02-28T08:41:35;6.90;99.90
24470;DHT22;12635;50.852;5.676;2023-02-28T08:44:02;6.30;99.90
24470;DHT22;12635;50.852;5.676;2023-02-28T08:46:30;6.30;99.90
24470;DHT22;12635;50.852;5.676;2023-02-28T08:48:57;6.20;99.90
24470;DHT22;12635;50.852;5.676;2023-02-28T08:51:25;6.30;99.90
24470;DHT22;12635;50.852;5.676;2023-02-28T08:53:52;6.80;99.90
24470;DHT22;12635;50.852;5.676;2023-02-28T08:56:19;6.40;99.90
24470;DHT22;12635;50.852;5.676;2023-02-28T08:58:47;5.80;99.90
24470;DHT22;12635;50.852;5.676;2023-02-28T09:01:15;5.60;99.90
24470;DHT22;12635;50.852;5.676;2023-02-28T09:03:44;5.90;99.90
24470;DHT22;12635;50.852;5.676;2023-02-28T09:06:13;5.90;99.90
24470;DHT22;12635;50.852;5.676;2023-02-28T09:08:40;6.50;99.90
24470;DHT22;12635;50.852;5.676;2023-02-28T09:11:07;6.50;99.90
24470;DHT22;12635;50.852;5.676;2023-02-28T09:13:34;6.60;99.90
24470;DHT22;12635;50.852;5.676;2023-02-28T09:16:02;6.80;99.90
24470;DHT22;12635;50.852;5.676;2023-02-28T09:18:29;7.00;99.90
24470;DHT22;12635;50.852;5.676;2023-02-28T09:20:58;6.80;99.90
24470;DHT22;12635;50.852;5.676;2023-02-28T09:23:24;6.70;99.90
24470;DHT22;12635;50.852;5.676;2023-02-28T09:25:52;7.40;99.90
24470;DHT22;12635;50.852;5.676;2023-02-28T09:28:19;6.70;99.90
24470;DHT22;12635;50.852;5.676;2023-02-28T09:30:47;6.50;99.90
24470;DHT22;12635;50.852;5.676;2023-02-28T09:33:14;6.70;99.90
24470;DHT22;12635;50.852;5.676;2023-02-28T09:35:41;6.90;99.90
24470;DHT22;12635;50.852;5.676;2023-02-28T09:38:10;7.40;99.90
24470;DHT22;12635;50.852;5.676;2023-02-28T09:40:37;7.20;99.90
24470;DHT22;12635;50.852;5.676;2023-02-28T09:43:09;6.30;99.90
24470;DHT22;12635;50.852;5.676;2023-02-28T09:45:38;6.40;99.90
24470;DHT22;12635;50.852;5.676;2023-02-28T09:48:08;6.80;99.90
24470;DHT22;12635;50.852;5.676;2023-02-28T09:50:38;7.20;99.90
24470;DHT22;12635;50.852;5.676;2023-02-28T09:53:13;6.70;99.90
24470;DHT22;12635;50.852;5.676;2023-02-28T09:55:42;6.00;99.90
24470;DHT22;12635;50.852;5.676;2023-02-28T09:58:11;5.40;99.90
24470;DHT22;12635;50.852;5.676;2023-02-28T10:00:42;5.70;99.90
24470;DHT22;12635;50.852;5.676;2023-02-28T10:05:56;5.80;99.90
24470;DHT22;12635;50.852;5.676;2023-02-28T10:08:27;6.50;99.90
24470;DHT22;12635;50.852;5.676;2023-02-28T10:10:55;6.40;99.90
24470;DHT22;12635;50.852;5.676;2023-02-28T10:13:25;7.10;99.90
24470;DHT22;12635;50.852;5.676;2023-02-28T10:15:55;7.10;99.90
24470;DHT22;12635;50.852;5.676;2023-02-28T10:18:24;7.00;99.90
24470;DHT22;12635;50.852;5.676;2023-02-28T10:20:53;6.80;99.90
24470;DHT22;12635;50.852;5.676;2023-02-28T10:23:21;6.90;99.90
24470;DHT22;12635;50.852;5.676;2023-02-28T10:25:53;6.80;99.90
24470;DHT22;12635;50.852;5.676;2023-02-28T10:28:20;6.30;99.90
24470;DHT22;12635;50.852;5.676;2023-02-28T10:30:47;5.80;99.90
24470;DHT22;12635;50.852;5.676;2023-02-28T10:33:17;5.20;99.90
24470;DHT22;12635;50.852;5.676;2023-02-28T10:35:45;5.70;99.90
24470;DHT22;12635;50.852;5.676;2023-02-28T10:38:15;4.90;99.90
24470;DHT22;12635;50.852;5.676;2023-02-28T10:40:42;4.00;99.90
24470;DHT22;12635;50.852;5.676;2023-02-28T10:43:18;3.30;99.90
24470;DHT22;12635;50.852;5.676;2023-02-28T10:45:52;3.10;99.90
24470;DHT22;12635;50.852;5.676;2023-02-28T10:51:05;3.60;99.90
24470;DHT22;12635;50.852;5.676;2023-02-28T10:53:34;3.80;99.90
24470;DHT22;12635;50.852;5.676;2023-02-28T10:56:03;3.50;99.90
24470;DHT22;12635;50.852;5.676;2023-02-28T10:58:34;3.40;99.90
24470;DHT22;12635;50.852;5.676;2023-02-28T11:01:12;3.40;99.90
24470;DHT22;12635;50.852;5.676;2023-02-28T11:03:40;3.80;99.90
24470;DHT22;12635;50.852;5.676;2023-02-28T11:06:07;3.70;99.90
24470;DHT22;12635;50.852;5.676;2023-02-28T11:08:35;4.30;99.90
24470;DHT22;12635;50.852;5.676;2023-02-28T11:11:09;5.60;99.90
24470;DHT22;12635;50.852;5.676;2023-02-28T11:13:37;6.40;99.80
24470;DHT22;12635;50.852;5.676;2023-02-28T11:16:05;5.90;99.90
24470;DHT22;12635;50.852;5.676;2023-02-28T11:18:35;5.70;99.90
24470;DHT22;12635;50.852;5.676;2023-02-28T11:21:04;6.40;99.90
24470;DHT22;12635;50.852;5.676;2023-02-28T11:23:32;7.30;99.20
24470;DHT22;12635;50.852;5.676;2023-02-28T11:26:01;7.40;99.90
24470;DHT22;12635;50.852;5.676;2023-02-28T11:28:30;6.80;99.40
24470;DHT22;12635;50.852;5.676;2023-02-28T11:31:03;6.90;99.20
24470;DHT22;12635;50.852;5.676;2023-02-28T11:33:31;6.50;97.90
24470;DHT22;12635;50.852;5.676;2023-02-28T11:36:00;5.60;98.90
24470;DHT22;12635;50.852;5.676;2023-02-28T11:38:27;4.90;98.90
24470;DHT22;12635;50.852;5.676;2023-02-28T11:41:06;5.50;98.50
24470;DHT22;12635;50.852;5.676;2023-02-28T11:43:38;6.00;99.00
24470;DHT22;12635;50.852;5.676;2023-02-28T11:46:13;6.90;98.90
24470;DHT22;12635;50.852;5.676;2023-02-28T11:48:43;6.20;98.20
24470;DHT22;12635;50.852;5.676;2023-02-28T11:51:14;5.90;99.60
24470;DHT22;12635;50.852;5.676;2023-02-28T11:53:50;5.90;99.10
24470;DHT22;12635;50.852;5.676;2023-02-28T11:56:23;6.10;98.30
24470;DHT22;12635;50.852;5.676;2023-02-28T11:58:54;6.30;98.10
24470;DHT22;12635;50.852;5.676;2023-02-28T12:01:41;6.50;98.10
24470;DHT22;12635;50.852;5.676;2023-02-28T12:04:12;6.30;97.90
24470;DHT22;12635;50.852;5.676;2023-02-28T12:06:44;6.30;99.10
24470;DHT22;12635;50.852;5.676;2023-02-28T12:09:17;6.50;99.90
24470;DHT22;12635;50.852;5.676;2023-02-28T12:11:48;6.90;98.80
24470;DHT22;12635;50.852;5.676;2023-02-28T12:14:22;6.90;97.90
24470;DHT22;12635;50.852;5.676;2023-02-28T12:16:55;7.10;97.30
24470;DHT22;12635;50.852;5.676;2023-02-28T12:19:24;6.90;98.00
24470;DHT22;12635;50.852;5.676;2023-02-28T12:21:56;7.20;98.10
24470;DHT22;12635;50.852;5.676;2023-02-28T12:24:39;7.30;98.70
24470;DHT22;12635;50.852;5.676;2023-02-28T12:27:09;7.20;98.10
24470;DHT22;12635;50.852;5.676;2023-02-28T12:29:39;6.90;97.10
24470;DHT22;12635;50.852;5.676;2023-02-28T12:32:11;7.10;98.70
24470;DHT22;12635;50.852;5.676;2023-02-28T12:34:41;7.10;99.20
24470;DHT22;12635;50.852;5.676;2023-02-28T12:37:10;6.80;99.20
24470;DHT22;12635;50.852;5.676;2023-02-28T12:39:40;7.20;99.50
24470;DHT22;12635;50.852;5.676;2023-02-28T12:42:10;7.40;99.10
24470;DHT22;12635;50.852;5.676;2023-02-28T12:44:39;8.00;97.70
24470;DHT22;12635;50.852;5.676;2023-02-28T12:47:11;7.40;96.80
24470;DHT22;12635;50.852;5.676;2023-02-28T12:49:41;7.10;97.10
24470;DHT22;12635;50.852;5.676;2023-02-28T12:52:09;6.70;98.90
24470;DHT22;12635;50.852;5.676;2023-02-28T12:54:40;6.60;98.10
24470;DHT22;12635;50.852;5.676;2023-02-28T12:57:12;6.60;98.30
24470;DHT22;12635;50.852;5.676;2023-02-28T12:59:41;6.70;98.00
24470;DHT22;12635;50.852;5.676;2023-02-28T13:02:31;6.90;97.40
24470;DHT22;12635;50.852;5.676;2023-02-28T13:05:02;6.70;98.00
24470;DHT22;12635;50.852;5.676;2023-02-28T13:10:18;6.70;97.80
24470;DHT22;12635;50.852;5.676;2023-02-28T13:12:48;6.90;98.20
24470;DHT22;12635;50.852;5.676;2023-02-28T13:15:19;7.40;98.50
24470;DHT22;12635;50.852;5.676;2023-02-28T13:17:51;7.50;97.60
24470;DHT22;12635;50.852;5.676;2023-02-28T13:20:19;6.90;99.90
24470;DHT22;12635;50.852;5.676;2023-02-28T13:22:47;7.20;99.30
24470;DHT22;12635;50.852;5.676;2023-02-28T13:28:03;7.60;99.50
24470;DHT22;12635;50.852;5.676;2023-02-28T13:33:23;6.90;98.60
24470;DHT22;12635;50.852;5.676;2023-02-28T13:36:00;7.10;98.60
24470;DHT22;12635;50.852;5.676;2023-02-28T13:38:34;6.90;99.00
24470;DHT22;12635;50.852;5.676;2023-02-28T13:46:31;7.20;98.70
24470;DHT22;12635;50.852;5.676;2023-02-28T13:51:43;7.40;99.80
24470;DHT22;12635;50.852;5.676;2023-02-28T13:54:17;6.70;99.10
24470;DHT22;12635;50.852;5.676;2023-02-28T13:56:49;6.90;99.00
24470;DHT22;12635;50.852;5.676;2023-02-28T13:59:22;7.20;99.00
24470;DHT22;12635;50.852;5.676;2023-02-28T14:01:57;6.90;98.60
24470;DHT22;12635;50.852;5.676;2023-02-28T14:07:09;6.90;99.70
24470;DHT22;12635;50.852;5.676;2023-02-28T14:09:45;7.10;99.60
24470;DHT22;12635;50.852;5.676;2023-02-28T14:14:58;7.70;98.80
24470;DHT22;12635;50.852;5.676;2023-02-28T14:17:25;7.90;98.70
24470;DHT22;12635;50.852;5.676;2023-02-28T14:19:52;7.90;99.80
24470;DHT22;12635;50.852;5.676;2023-02-28T14:22:25;7.90;98.70
24470;DHT22;12635;50.852;5.676;2023-02-28T14:25:05;7.50;98.00
24470;DHT22;12635;50.852;5.676;2023-02-28T14:27:37;7.60;98.90
24470;DHT22;12635;50.852;5.676;2023-02-28T14:30:15;7.80;99.10
24470;DHT22;12635;50.852;5.676;2023-02-28T14:32:48;7.80;98.10
24470;DHT22;12635;50.852;5.676;2023-02-28T14:35:25;7.50;98.50
24470;DHT22;12635;50.852;5.676;2023-02-28T14:37:57;7.80;98.50
24470;DHT22;12635;50.852;5.676;2023-02-28T14:40:25;7.90;98.30
24470;DHT22;12635;50.852;5.676;2023-02-28T14:42:54;7.50;99.70
24470;DHT22;12635;50.852;5.676;2023-02-28T14:45:22;7.60;98.60
24470;DHT22;12635;50.852;5.676;2023-02-28T14:47:49;7.80;98.80
24470;DHT22;12635;50.852;5.676;2023-02-28T14:50:17;8.10;98.70
24470;DHT22;12635;50.852;5.676;2023-02-28T14:52:44;7.80;99.10
24470;DHT22;12635;50.852;5.676;2023-02-28T14:55:13;7.50;98.30
24470;DHT22;12635;50.852;5.676;2023-02-28T14:57:41;7.40;98.20
24470;DHT22;12635;50.852;5.676;2023-02-28T15:00:14;6.90;98.50
24470;DHT22;12635;50.852;5.676;2023-02-28T15:02:41;6.80;99.90
24470;DHT22;12635;50.852;5.676;2023-02-28T15:05:28;6.80;98.80
24470;DHT22;12635;50.852;5.676;2023-02-28T15:08:03;7.10;99.90
24470;DHT22;12635;50.852;5.676;2023-02-28T15:10:32;7.10;99.60
24470;DHT22;12635;50.852;5.676;2023-02-28T15:12:59;7.50;99.20
24470;DHT22;12635;50.852;5.676;2023-02-28T15:15:32;7.70;99.40
24470;DHT22;12635;50.852;5.676;2023-02-28T15:18:00;7.60;99.80
24470;DHT22;12635;50.852;5.676;2023-02-28T15:20:29;7.90;99.90
24470;DHT22;12635;50.852;5.676;2023-02-28T15:22:56;7.60;99.60
24470;DHT22;12635;50.852;5.676;2023-02-28T15:25:23;7.70;99.80
24470;DHT22;12635;50.852;5.676;2023-02-28T15:27:53;7.60;99.00
24470;DHT22;12635;50.852;5.676;2023-02-28T15:30:21;7.00;99.90
24470;DHT22;12635;50.852;5.676;2023-02-28T15:33:02;7.50;99.70
24470;DHT22;12635;50.852;5.676;2023-02-28T15:35:29;7.30;99.60
24470;DHT22;12635;50.852;5.676;2023-02-28T15:37:57;7.10;99.10
24470;DHT22;12635;50.852;5.676;2023-02-28T15:40:27;7.00;99.20
24470;DHT22;12635;50.852;5.676;2023-02-28T15:42:59;6.90;99.90
24470;DHT22;12635;50.852;5.676;2023-02-28T15:45:27;7.00;99.90
24470;DHT22;12635;50.852;5.676;2023-02-28T15:47:55;6.80;99.50
24470;DHT22;12635;50.852;5.676;2023-02-28T15:50:22;6.60;99.90
24470;DHT22;12635;50.852;5.676;2023-02-28T15:52:50;6.60;99.90
24470;DHT22;12635;50.852;5.676;2023-02-28T15:55:18;6.80;99.70
24470;DHT22;12635;50.852;5.676;2023-02-28T15:57:45;6.60;99.90
24470;DHT22;12635;50.852;5.676;2023-02-28T16:00:15;6.30;99.90
24470;DHT22;12635;50.852;5.676;2023-02-28T16:02:42;6.40;99.90
24470;DHT22;12635;50.852;5.676;2023-02-28T16:05:17;6.40;99.90
24470;DHT22;12635;50.852;5.676;2023-02-28T16:07:46;6.50;99.90
24470;DHT22;12635;50.852;5.676;2023-02-28T16:10:14;6.30;99.90
24470;DHT22;12635;50.852;5.676;2023-02-28T16:12:41;6.20;99.90
24470;DHT22;12635;50.852;5.676;2023-02-28T16:15:09;6.10;99.90
24470;DHT22;12635;50.852;5.676;2023-02-28T16:17:44;6.00;99.90
24470;DHT22;12635;50.852;5.676;2023-02-28T16:20:12;5.70;99.90
24470;DHT22;12635;50.852;5.676;2023-02-28T16:22:40;5.80;99.90